sensor_id;sensor_type;location;lat;lon;timestamp;pressure;altitude;pressure_sealevel;temperature
71807;BMP280;59655;42.590;23.364;2022-10-16T00:01:12;92114.19;;;9.46
71807;BMP280;59655;42.590;23.364;2022-10-16T00:03:39;92120.47;;;9.43
71807;BMP280;59655;42.590;23.364;2022-10-16T00:06:04;92120.25;;;9.41
71807;BMP280;59655;42.590;23.364;2022-10-16T00:08:30;92127.50;;;9.40
71807;BMP280;59655;42.590;23.364;2022-10-16T00:11:01;92123.63;;;9.41
71807;BMP280;59655;42.590;23.364;2022-10-16T00:13:27;92123.41;;;9.39
71807;BMP280;59655;42.590;23.364;2022-10-16T00:15:55;92125.66;;;9.35
71807;BMP280;59655;42.590;23.364;2022-10-16T00:18:21;92116.81;;;9.33
71807;BMP280;59655;42.590;23.364;2022-10-16T00:20:46;92119.78;;;9.29
71807;BMP280;59655;42.590;23.364;2022-10-16T00:23:12;92122.72;;;9.26
71807;BMP280;59655;42.590;23.364;2022-10-16T00:25:37;92117.31;;;9.18
71807;BMP280;59655;42.590;23.364;2022-10-16T00:28:02;92118.53;;;9.17
71807;BMP280;59655;42.590;23.364;2022-10-16T00:30:28;92127.97;;;9.12
71807;BMP280;59655;42.590;23.364;2022-10-16T00:32:55;92129.34;;;9.19
71807;BMP280;59655;42.590;23.364;2022-10-16T00:35:20;92138.00;;;9.19
71807;BMP280;59655;42.590;23.364;2022-10-16T00:37:45;92130.53;;;9.18
71807;BMP280;59655;42.590;23.364;2022-10-16T00:40:11;92136.13;;;9.14
71807;BMP280;59655;42.590;23.364;2022-10-16T00:42:37;92132.97;;;9.16
71807;BMP280;59655;42.590;23.364;2022-10-16T00:45:03;92132.06;;;9.13
71807;BMP280;59655;42.590;23.364;2022-10-16T00:47:41;92129.31;;;9.06
71807;BMP280;59655;42.590;23.364;2022-10-16T00:52:32;92131.94;;;9.06
71807;BMP280;59655;42.590;23.364;2022-10-16T00:54:58;92127.66;;;9.02
71807;BMP280;59655;42.590;23.364;2022-10-16T00:57:24;92132.25;;;9.02
71807;BMP280;59655;42.590;23.364;2022-10-16T00:59:50;92136.81;;;9.01
71807;BMP280;59655;42.590;23.364;2022-10-16T01:02:16;92143.34;;;9.00
71807;BMP280;59655;42.590;23.364;2022-10-16T01:04:52;92136.09;;;9.01
71807;BMP280;59655;42.590;23.364;2022-10-16T01:10:37;92146.81;;;8.95
71807;BMP280;59655;42.590;23.364;2022-10-16T01:13:06;92161.53;;;8.91
71807;BMP280;59655;42.590;23.364;2022-10-16T01:15:47;92153.59;;;8.91
71807;BMP280;59655;42.590;23.364;2022-10-16T01:18:30;92146.97;;;8.84
71807;BMP280;59655;42.590;23.364;2022-10-16T01:21:01;92149.22;;;8.80
71807;BMP280;59655;42.590;23.364;2022-10-16T01:29:18;92145.50;;;8.70
71807;BMP280;59655;42.590;23.364;2022-10-16T01:31:50;92140.59;;;8.74
71807;BMP280;59655;42.590;23.364;2022-10-16T01:34:34;92133.28;;;8.67
71807;BMP280;59655;42.590;23.364;2022-10-16T01:37:04;92127.78;;;8.65
71807;BMP280;59655;42.590;23.364;2022-10-16T01:39:32;92137.94;;;8.60
71807;BMP280;59655;42.590;23.364;2022-10-16T01:42:08;92125.41;;;8.61
71807;BMP280;59655;42.590;23.364;2022-10-16T01:44:36;92127.66;;;8.57
71807;BMP280;59655;42.590;23.364;2022-10-16T01:47:03;92134.22;;;8.50
71807;BMP280;59655;42.590;23.364;2022-10-16T01:49:34;92140.94;;;8.51
71807;BMP280;59655;42.590;23.364;2022-10-16T01:52:06;92140.75;;;8.49
71807;BMP280;59655;42.590;23.364;2022-10-16T01:54:35;92138.81;;;8.50
71807;BMP280;59655;42.590;23.364;2022-10-16T01:57:04;92141.09;;;8.40
71807;BMP280;59655;42.590;23.364;2022-10-16T01:59:31;92150.66;;;8.43
71807;BMP280;59655;42.590;23.364;2022-10-16T02:02:00;92138.66;;;8.42
71807;BMP280;59655;42.590;23.364;2022-10-16T02:04:29;92142.97;;;8.45
71807;BMP280;59655;42.590;23.364;2022-10-16T02:06:57;92137.22;;;8.41
71807;BMP280;59655;42.590;23.364;2022-10-16T02:09:22;92146.88;;;8.38
71807;BMP280;59655;42.590;23.364;2022-10-16T02:11:48;92144.25;;;8.38
71807;BMP280;59655;42.590;23.364;2022-10-16T02:14:15;92147.38;;;8.37
71807;BMP280;59655;42.590;23.364;2022-10-16T02:16:43;92150.75;;;8.37
71807;BMP280;59655;42.590;23.364;2022-10-16T02:19:09;92156.03;;;8.37
71807;BMP280;59655;42.590;23.364;2022-10-16T02:21:44;92159.91;;;8.36
71807;BMP280;59655;42.590;23.364;2022-10-16T02:24:25;92157.25;;;8.36
71807;BMP280;59655;42.590;23.364;2022-10-16T02:26:57;92157.25;;;8.36
71807;BMP280;59655;42.590;23.364;2022-10-16T02:29:27;92160.31;;;8.41
71807;BMP280;59655;42.590;23.364;2022-10-16T02:32:00;92168.81;;;8.33
71807;BMP280;59655;42.590;23.364;2022-10-16T02:34:27;92166.16;;;8.33
71807;BMP280;59655;42.590;23.364;2022-10-16T02:36:54;92167.38;;;8.32
71807;BMP280;59655;42.590;23.364;2022-10-16T02:39:20;92165.66;;;8.35
71807;BMP280;59655;42.590;23.364;2022-10-16T02:41:46;92158.22;;;8.33
71807;BMP280;59655;42.590;23.364;2022-10-16T02:44:12;92160.16;;;8.33
71807;BMP280;59655;42.590;23.364;2022-10-16T02:46:37;92158.00;;;8.31
71807;BMP280;59655;42.590;23.364;2022-10-16T02:49:03;92165.53;;;8.27
71807;BMP280;59655;42.590;23.364;2022-10-16T02:51:28;92160.44;;;8.29
71807;BMP280;59655;42.590;23.364;2022-10-16T02:53:54;92163.59;;;8.28
71807;BMP280;59655;42.590;23.364;2022-10-16T02:56:20;92162.41;;;8.29
71807;BMP280;59655;42.590;23.364;2022-10-16T02:58:45;92167.16;;;8.30
71807;BMP280;59655;42.590;23.364;2022-10-16T03:01:10;92168.88;;;8.28
71807;BMP280;59655;42.590;23.364;2022-10-16T03:03:38;92167.69;;;8.29
71807;BMP280;59655;42.590;23.364;2022-10-16T03:06:03;92166.47;;;8.30
71807;BMP280;59655;42.590;23.364;2022-10-16T03:08:29;92172.97;;;8.29
71807;BMP280;59655;42.590;23.364;2022-10-16T03:10:54;92164.88;;;8.21
71807;BMP280;59655;42.590;23.364;2022-10-16T03:13:20;92167.25;;;8.25
71807;BMP280;59655;42.590;23.364;2022-10-16T03:15:45;92169.09;;;8.30
71807;BMP280;59655;42.590;23.364;2022-10-16T03:18:11;92168.88;;;8.28
71807;BMP280;59655;42.590;23.364;2022-10-16T03:20:36;92167.97;;;8.25
71807;BMP280;59655;42.590;23.364;2022-10-16T03:23:01;92169.41;;;8.26
71807;BMP280;59655;42.590;23.364;2022-10-16T03:25:27;92172.97;;;8.29
71807;BMP280;59655;42.590;23.364;2022-10-16T03:27:53;92179.25;;;8.26
71807;BMP280;59655;42.590;23.364;2022-10-16T03:30:18;92173.97;;;8.26
71807;BMP280;59655;42.590;23.364;2022-10-16T03:32:44;92177.59;;;8.23
71807;BMP280;59655;42.590;23.364;2022-10-16T03:35:10;92173.03;;;8.23
71807;BMP280;59655;42.590;23.364;2022-10-16T03:37:36;92173.50;;;8.22
71807;BMP280;59655;42.590;23.364;2022-10-16T03:40:02;92176.38;;;8.24
71807;BMP280;59655;42.590;23.364;2022-10-16T03:42:28;92174.97;;;8.23
71807;BMP280;59655;42.590;23.364;2022-10-16T03:44:53;92169.25;;;8.19
71807;BMP280;59655;42.590;23.364;2022-10-16T03:47:18;92178.59;;;8.20
71807;BMP280;59655;42.590;23.364;2022-10-16T03:49:47;92165.59;;;8.22
71807;BMP280;59655;42.590;23.364;2022-10-16T03:52:12;92174.56;;;8.19
71807;BMP280;59655;42.590;23.364;2022-10-16T03:54:38;92170.47;;;8.17
71807;BMP280;59655;42.590;23.364;2022-10-16T03:57:03;92172.41;;;8.17
71807;BMP280;59655;42.590;23.364;2022-10-16T03:59:28;92170.03;;;8.13
71807;BMP280;59655;42.590;23.364;2022-10-16T04:01:54;92165.44;;;8.14
71807;BMP280;59655;42.590;23.364;2022-10-16T04:04:19;92171.97;;;8.13
71807;BMP280;59655;42.590;23.364;2022-10-16T04:06:44;92165.22;;;8.12
71807;BMP280;59655;42.590;23.364;2022-10-16T04:09:10;92175.38;;;8.08
71807;BMP280;59655;42.590;23.364;2022-10-16T04:11:35;92167.66;;;8.10
71807;BMP280;59655;42.590;23.364;2022-10-16T04:14:01;92177.50;;;8.09
71807;BMP280;59655;42.590;23.364;2022-10-16T04:16:26;92179.03;;;8.05
71807;BMP280;59655;42.590;23.364;2022-10-16T04:18:51;92178.72;;;8.08
71807;BMP280;59655;42.590;23.364;2022-10-16T04:21:17;92178.06;;;8.02
71807;BMP280;59655;42.590;23.364;2022-10-16T04:23:42;92180.50;;;8.00
71807;BMP280;59655;42.590;23.364;2022-10-16T04:26:07;92184.38;;;7.99
71807;BMP280;59655;42.590;23.364;2022-10-16T04:28:33;92170.22;;;7.96
71807;BMP280;59655;42.590;23.364;2022-10-16T04:30:58;92177.00;;;7.92
71807;BMP280;59655;42.590;23.364;2022-10-16T04:33:24;92175.78;;;7.93
71807;BMP280;59655;42.590;23.364;2022-10-16T04:35:56;92178.63;;;7.95
71807;BMP280;59655;42.590;23.364;2022-10-16T04:38:22;92185.63;;;7.92
71807;BMP280;59655;42.590;23.364;2022-10-16T04:40:47;92187.56;;;7.92
71807;BMP280;59655;42.590;23.364;2022-10-16T04:43:12;92198.13;;;7.92
71807;BMP280;59655;42.590;23.364;2022-10-16T04:45:38;92188.84;;;7.85
71807;BMP280;59655;42.590;23.364;2022-10-16T04:48:03;92189.06;;;7.87
71807;BMP280;59655;42.590;23.364;2022-10-16T04:50:29;92198.84;;;7.92
71807;BMP280;59655;42.590;23.364;2022-10-16T04:52:54;92198.63;;;7.90
71807;BMP280;59655;42.590;23.364;2022-10-16T04:55:19;92199.34;;;7.91
71807;BMP280;59655;42.590;23.364;2022-10-16T04:57:45;92196.84;;;7.99
71807;BMP280;59655;42.590;23.364;2022-10-16T05:00:10;92201.41;;;7.98
71807;BMP280;59655;42.590;23.364;2022-10-16T05:02:36;92204.84;;;7.93
71807;BMP280;59655;42.590;23.364;2022-10-16T05:05:02;92213.28;;;7.91
71807;BMP280;59655;42.590;23.364;2022-10-16T05:07:27;92208.56;;;7.84
71807;BMP280;59655;42.590;23.364;2022-10-16T05:09:52;92213.34;;;7.86
71807;BMP280;59655;42.590;23.364;2022-10-16T05:12:18;92216.38;;;7.95
71807;BMP280;59655;42.590;23.364;2022-10-16T05:14:44;92220.13;;;8.00
71807;BMP280;59655;42.590;23.364;2022-10-16T05:17:10;92222.50;;;8.04
71807;BMP280;59655;42.590;23.364;2022-10-16T05:19:36;92216.25;;;8.07
71807;BMP280;59655;42.590;23.364;2022-10-16T05:22:02;92223.44;;;8.06
71807;BMP280;59655;42.590;23.364;2022-10-16T05:24:27;92230.88;;;8.08
71807;BMP280;59655;42.590;23.364;2022-10-16T05:26:53;92231.78;;;8.10
71807;BMP280;59655;42.590;23.364;2022-10-16T05:29:19;92224.09;;;8.12
71807;BMP280;59655;42.590;23.364;2022-10-16T05:31:44;92227.47;;;8.13
71807;BMP280;59655;42.590;23.364;2022-10-16T05:34:10;92228.81;;;8.20
71807;BMP280;59655;42.590;23.364;2022-10-16T05:36:35;92227.94;;;8.11
71807;BMP280;59655;42.590;23.364;2022-10-16T05:39:01;92230.09;;;8.13
71807;BMP280;59655;42.590;23.364;2022-10-16T05:41:26;92236.44;;;8.04
71807;BMP280;59655;42.590;23.364;2022-10-16T05:43:52;92236.09;;;8.13
71807;BMP280;59655;42.590;23.364;2022-10-16T05:46:18;92232.47;;;8.16
71807;BMP280;59655;42.590;23.364;2022-10-16T05:48:43;92230.25;;;8.21
71807;BMP280;59655;42.590;23.364;2022-10-16T05:51:10;92233.34;;;8.25
71807;BMP280;59655;42.590;23.364;2022-10-16T05:53:37;92241.28;;;8.25
71807;BMP280;59655;42.590;23.364;2022-10-16T05:56:03;92241.72;;;8.29
71807;BMP280;59655;42.590;23.364;2022-10-16T05:58:32;92252.69;;;8.33
71807;BMP280;59655;42.590;23.364;2022-10-16T06:01:01;92252.22;;;8.34
71807;BMP280;59655;42.590;23.364;2022-10-16T06:03:27;92263.72;;;8.37
71807;BMP280;59655;42.590;23.364;2022-10-16T06:05:53;92259.81;;;8.44
71807;BMP280;59655;42.590;23.364;2022-10-16T06:08:20;92260.72;;;8.46
71807;BMP280;59655;42.590;23.364;2022-10-16T06:10:46;92259.22;;;8.51
71807;BMP280;59655;42.590;23.364;2022-10-16T06:13:13;92272.16;;;8.54
71807;BMP280;59655;42.590;23.364;2022-10-16T06:15:39;92277.19;;;8.58
71807;BMP280;59655;42.590;23.364;2022-10-16T06:18:09;92272.31;;;8.62
71807;BMP280;59655;42.590;23.364;2022-10-16T06:20:35;92280.91;;;8.68
71807;BMP280;59655;42.590;23.364;2022-10-16T06:23:00;92283.06;;;8.70
71807;BMP280;59655;42.590;23.364;2022-10-16T06:25:26;92284.91;;;8.75
71807;BMP280;59655;42.590;23.364;2022-10-16T06:27:51;92291.34;;;8.79
71807;BMP280;59655;42.590;23.364;2022-10-16T06:30:17;92291.06;;;8.83
71807;BMP280;59655;42.590;23.364;2022-10-16T06:32:42;92292.72;;;8.86
71807;BMP280;59655;42.590;23.364;2022-10-16T06:35:07;92295.09;;;8.90
71807;BMP280;59655;42.590;23.364;2022-10-16T06:37:33;92296.50;;;8.91
71807;BMP280;59655;42.590;23.364;2022-10-16T06:39:58;92303.44;;;8.94
71807;BMP280;59655;42.590;23.364;2022-10-16T06:42:25;92290.63;;;8.98
71807;BMP280;59655;42.590;23.364;2022-10-16T06:44:50;92301.84;;;9.04
71807;BMP280;59655;42.590;23.364;2022-10-16T06:47:16;92316.75;;;9.07
71807;BMP280;59655;42.590;23.364;2022-10-16T06:49:41;92309.22;;;9.11
71807;BMP280;59655;42.590;23.364;2022-10-16T06:52:06;92302.69;;;9.12
71807;BMP280;59655;42.590;23.364;2022-10-16T06:54:32;92309.44;;;9.13
71807;BMP280;59655;42.590;23.364;2022-10-16T06:56:57;92317.50;;;9.21
71807;BMP280;59655;42.590;23.364;2022-10-16T06:59:25;92319.66;;;9.22
71807;BMP280;59655;42.590;23.364;2022-10-16T07:01:50;92325.41;;;9.27
71807;BMP280;59655;42.590;23.364;2022-10-16T07:04:15;92322.97;;;9.29
71807;BMP280;59655;42.590;23.364;2022-10-16T07:06:41;92330.81;;;9.34
71807;BMP280;59655;42.590;23.364;2022-10-16T07:09:08;92329.09;;;9.37
71807;BMP280;59655;42.590;23.364;2022-10-16T07:11:36;92325.75;;;9.36
71807;BMP280;59655;42.590;23.364;2022-10-16T07:14:02;92322.59;;;9.38
71807;BMP280;59655;42.590;23.364;2022-10-16T07:16:29;92335.75;;;9.43
71807;BMP280;59655;42.590;23.364;2022-10-16T07:18:57;92335.78;;;9.57
71807;BMP280;59655;42.590;23.364;2022-10-16T07:21:28;92327.25;;;9.64
71807;BMP280;59655;42.590;23.364;2022-10-16T07:23:58;92336.44;;;9.63
71807;BMP280;59655;42.590;23.364;2022-10-16T07:26:24;92336.22;;;9.61
71807;BMP280;59655;42.590;23.364;2022-10-16T07:28:50;92337.41;;;9.60
71807;BMP280;59655;42.590;23.364;2022-10-16T07:31:17;92335.19;;;9.64
71807;BMP280;59655;42.590;23.364;2022-10-16T07:33:43;92342.84;;;9.67
71807;BMP280;59655;42.590;23.364;2022-10-16T07:36:11;92336.66;;;9.65
71807;BMP280;59655;42.590;23.364;2022-10-16T07:38:36;92338.06;;;9.66
71807;BMP280;59655;42.590;23.364;2022-10-16T07:41:05;92345.44;;;9.73
71807;BMP280;59655;42.590;23.364;2022-10-16T07:43:31;92345.03;;;9.82
71807;BMP280;59655;42.590;23.364;2022-10-16T07:45:57;92352.38;;;9.89
71807;BMP280;59655;42.590;23.364;2022-10-16T07:48:26;92350.88;;;9.94
71807;BMP280;59655;42.590;23.364;2022-10-16T07:50:51;92352.50;;;9.97
71807;BMP280;59655;42.590;23.364;2022-10-16T07:53:17;92347.94;;;9.98
71807;BMP280;59655;42.590;23.364;2022-10-16T07:55:43;92353.22;;;9.98
71807;BMP280;59655;42.590;23.364;2022-10-16T07:58:09;92348.63;;;9.98
71807;BMP280;59655;42.590;23.364;2022-10-16T08:00:36;92357.28;;;9.99
71807;BMP280;59655;42.590;23.364;2022-10-16T08:03:02;92354.06;;;10.06
71807;BMP280;59655;42.590;23.364;2022-10-16T08:05:28;92354.06;;;10.06
71807;BMP280;59655;42.590;23.364;2022-10-16T08:07:54;92360.28;;;10.08
71807;BMP280;59655;42.590;23.364;2022-10-16T08:10:21;92354.47;;;10.10
71807;BMP280;59655;42.590;23.364;2022-10-16T08:12:47;92355.38;;;10.13
71807;BMP280;59655;42.590;23.364;2022-10-16T08:15:12;92363.78;;;10.17
71807;BMP280;59655;42.590;23.364;2022-10-16T08:17:37;92356.53;;;10.17
71807;BMP280;59655;42.590;23.364;2022-10-16T08:20:03;92364.88;;;10.21
71807;BMP280;59655;42.590;23.364;2022-10-16T08:22:29;92358.34;;;10.22
71807;BMP280;59655;42.590;23.364;2022-10-16T08:24:55;92362.22;;;10.21
71807;BMP280;59655;42.590;23.364;2022-10-16T08:27:20;92366.50;;;10.24
71807;BMP280;59655;42.590;23.364;2022-10-16T08:29:45;92365.50;;;10.27
71807;BMP280;59655;42.590;23.364;2022-10-16T08:32:11;92367.44;;;10.27
71807;BMP280;59655;42.590;23.364;2022-10-16T08:34:37;92361.66;;;10.28
71807;BMP280;59655;42.590;23.364;2022-10-16T08:37:02;92372.94;;;10.29
71807;BMP280;59655;42.590;23.364;2022-10-16T08:39:27;92365.91;;;10.31
71807;BMP280;59655;42.590;23.364;2022-10-16T08:45:10;92367.44;;;10.40
71807;BMP280;59655;42.590;23.364;2022-10-16T08:50:25;92366.44;;;10.43
71807;BMP280;59655;42.590;23.364;2022-10-16T08:52:53;92368.59;;;10.45
71807;BMP280;59655;42.590;23.364;2022-10-16T08:55:39;92372.56;;;10.51
71807;BMP280;59655;42.590;23.364;2022-10-16T08:58:14;92377.88;;;10.51
71807;BMP280;59655;42.590;23.364;2022-10-16T09:00:40;92377.34;;;10.53
71807;BMP280;59655;42.590;23.364;2022-10-16T09:13:47;92373.47;;;10.67
71807;BMP280;59655;42.590;23.364;2022-10-16T09:16:24;92375.28;;;10.72
71807;BMP280;59655;42.590;23.364;2022-10-16T09:23:54;92380.69;;;10.80
71807;BMP280;59655;42.590;23.364;2022-10-16T09:26:22;92376.13;;;10.81
71807;BMP280;59655;42.590;23.364;2022-10-16T09:28:48;92382.84;;;10.82
71807;BMP280;59655;42.590;23.364;2022-10-16T09:31:17;92376.22;;;10.88
71807;BMP280;59655;42.590;23.364;2022-10-16T09:33:43;92382.00;;;10.87
71807;BMP280;59655;42.590;23.364;2022-10-16T09:36:11;92375.38;;;10.93
71807;BMP280;59655;42.590;23.364;2022-10-16T09:38:38;92379.16;;;10.98
71807;BMP280;59655;42.590;23.364;2022-10-16T09:41:14;92365.75;;;11.04
71807;BMP280;59655;42.590;23.364;2022-10-16T09:43:56;92373.63;;;11.09
71807;BMP280;59655;42.590;23.364;2022-10-16T09:46:26;92365.09;;;11.11
71807;BMP280;59655;42.590;23.364;2022-10-16T09:48:55;92369.91;;;11.12
71807;BMP280;59655;42.590;23.364;2022-10-16T09:51:29;92360.53;;;11.11
71807;BMP280;59655;42.590;23.364;2022-10-16T09:54:01;92364.81;;;11.14
71807;BMP280;59655;42.590;23.364;2022-10-16T09:56:31;92372.16;;;11.22
71807;BMP280;59655;42.590;23.364;2022-10-16T09:59:00;92361.22;;;11.25
71807;BMP280;59655;42.590;23.364;2022-10-16T10:01:50;92365.47;;;11.28
71807;BMP280;59655;42.590;23.364;2022-10-16T10:04:16;92365.47;;;11.28
71807;BMP280;59655;42.590;23.364;2022-10-16T10:06:51;92372.72;;;11.28
71807;BMP280;59655;42.590;23.364;2022-10-16T10:09:32;92368.34;;;11.30
71807;BMP280;59655;42.590;23.364;2022-10-16T10:12:01;92356.69;;;11.33
71807;BMP280;59655;42.590;23.364;2022-10-16T10:14:38;92363.31;;;11.40
71807;BMP280;59655;42.590;23.364;2022-10-16T10:19:38;92353.19;;;11.38
71807;BMP280;59655;42.590;23.364;2022-10-16T10:33:49;92353.28;;;11.46
71807;BMP280;59655;42.590;23.364;2022-10-16T10:39:13;92350.56;;;11.59
71807;BMP280;59655;42.590;23.364;2022-10-16T10:50:20;92341.25;;;11.74
71807;BMP280;59655;42.590;23.364;2022-10-16T10:56:04;92345.69;;;11.92
71807;BMP280;59655;42.590;23.364;2022-10-16T11:01:08;92345.38;;;12.03
71807;BMP280;59655;42.590;23.364;2022-10-16T11:07:00;92327.16;;;12.08
71807;BMP280;59655;42.590;23.364;2022-10-16T11:09:37;92325.03;;;12.06
71807;BMP280;59655;42.590;23.364;2022-10-16T11:14:44;92324.88;;;12.12
71807;BMP280;59655;42.590;23.364;2022-10-16T11:17:15;92327.22;;;12.15
71807;BMP280;59655;42.590;23.364;2022-10-16T11:19:55;92322.81;;;12.25
71807;BMP280;59655;42.590;23.364;2022-10-16T11:22:35;92322.19;;;12.40
71807;BMP280;59655;42.590;23.364;2022-10-16T11:25:19;92322.72;;;12.39
71807;BMP280;59655;42.590;23.364;2022-10-16T11:31:14;92313.72;;;12.49
71807;BMP280;59655;42.590;23.364;2022-10-16T11:34:12;92321.50;;;12.47
71807;BMP280;59655;42.590;23.364;2022-10-16T11:36:46;92327.22;;;12.52
71807;BMP280;59655;42.590;23.364;2022-10-16T11:39:24;92321.19;;;12.51
71807;BMP280;59655;42.590;23.364;2022-10-16T11:41:55;92328.50;;;12.58
71807;BMP280;59655;42.590;23.364;2022-10-16T11:47:19;92320.00;;;12.67
71807;BMP280;59655;42.590;23.364;2022-10-16T11:49:50;92320.03;;;12.75
71807;BMP280;59655;42.590;23.364;2022-10-16T11:52:27;92317.56;;;12.77
71807;BMP280;59655;42.590;23.364;2022-10-16T11:55:04;92330.69;;;12.75
71807;BMP280;59655;42.590;23.364;2022-10-16T11:57:33;92325.91;;;12.81
71807;BMP280;59655;42.590;23.364;2022-10-16T12:00:14;92330.91;;;12.85
71807;BMP280;59655;42.590;23.364;2022-10-16T12:02:53;92324.34;;;12.86
71807;BMP280;59655;42.590;23.364;2022-10-16T12:10:25;92316.75;;;13.13
71807;BMP280;59655;42.590;23.364;2022-10-16T12:12:51;92322.25;;;13.15
71807;BMP280;59655;42.590;23.364;2022-10-16T12:15:21;92325.47;;;13.21
71807;BMP280;59655;42.590;23.364;2022-10-16T12:17:47;92325.28;;;13.19
71807;BMP280;59655;42.590;23.364;2022-10-16T12:22:47;92325.09;;;13.17
71807;BMP280;59655;42.590;23.364;2022-10-16T12:25:29;92323.22;;;13.33
71807;BMP280;59655;42.590;23.364;2022-10-16T12:27:59;92324.09;;;13.43
71807;BMP280;59655;42.590;23.364;2022-10-16T12:30:27;92324.44;;;13.47
71807;BMP280;59655;42.590;23.364;2022-10-16T12:32:58;92325.31;;;13.50
71807;BMP280;59655;42.590;23.364;2022-10-16T12:35:43;92329.63;;;13.53
71807;BMP280;59655;42.590;23.364;2022-10-16T12:41:10;92328.56;;;13.79
71807;BMP280;59655;42.590;23.364;2022-10-16T12:43:40;92326.41;;;13.85
71807;BMP280;59655;42.590;23.364;2022-10-16T12:48:35;92334.38;;;14.08
71807;BMP280;59655;42.590;23.364;2022-10-16T12:51:24;92327.41;;;14.20
71807;BMP280;59655;42.590;23.364;2022-10-16T12:54:03;92343.44;;;14.20
71807;BMP280;59655;42.590;23.364;2022-10-16T12:57:01;92336.78;;;14.44
71807;BMP280;59655;42.590;23.364;2022-10-16T13:13:59;92351.66;;;19.62
71807;BMP280;59655;42.590;23.364;2022-10-16T13:19:45;92357.03;;;19.83
71807;BMP280;59655;42.590;23.364;2022-10-16T13:30:16;92348.16;;;18.68
71807;BMP280;59655;42.590;23.364;2022-10-16T13:32:59;92353.28;;;18.35
71807;BMP280;59655;42.590;23.364;2022-10-16T13:35:31;92351.00;;;18.12
71807;BMP280;59655;42.590;23.364;2022-10-16T13:38:13;92356.94;;;18.01
71807;BMP280;59655;42.590;23.364;2022-10-16T13:43:24;92357.78;;;17.93
71807;BMP280;59655;42.590;23.364;2022-10-16T13:46:20;92350.69;;;17.88
71807;BMP280;59655;42.590;23.364;2022-10-16T13:48:55;92354.94;;;17.91
71807;BMP280;59655;42.590;23.364;2022-10-16T13:51:20;92351.97;;;17.87
71807;BMP280;59655;42.590;23.364;2022-10-16T13:53:46;92355.78;;;17.84
71807;BMP280;59655;42.590;23.364;2022-10-16T13:56:14;92361.16;;;17.84
71807;BMP280;59655;42.590;23.364;2022-10-16T13:58:40;92365.81;;;17.84
71807;BMP280;59655;42.590;23.364;2022-10-16T14:01:16;92365.94;;;17.86
71807;BMP280;59655;42.590;23.364;2022-10-16T14:03:42;92367.66;;;17.81
71807;BMP280;59655;42.590;23.364;2022-10-16T14:06:12;92367.91;;;17.76
71807;BMP280;59655;42.590;23.364;2022-10-16T14:08:43;92365.94;;;17.76
71807;BMP280;59655;42.590;23.364;2022-10-16T14:11:09;92368.16;;;17.70
71807;BMP280;59655;42.590;23.364;2022-10-16T14:13:43;92366.59;;;17.67
71807;BMP280;59655;42.590;23.364;2022-10-16T14:16:11;92367.31;;;17.67
71807;BMP280;59655;42.590;23.364;2022-10-16T14:18:45;92372.53;;;17.65
71807;BMP280;59655;42.590;23.364;2022-10-16T14:21:16;92372.22;;;17.61
71807;BMP280;59655;42.590;23.364;2022-10-16T14:23:42;92371.41;;;17.59
71807;BMP280;59655;42.590;23.364;2022-10-16T14:28:34;92380.25;;;17.52
71807;BMP280;59655;42.590;23.364;2022-10-16T14:31:02;92376.41;;;17.45
71807;BMP280;59655;42.590;23.364;2022-10-16T14:33:31;92379.66;;;17.34
71807;BMP280;59655;42.590;23.364;2022-10-16T14:36:11;92379.94;;;17.11
71807;BMP280;59655;42.590;23.364;2022-10-16T14:38:53;92379.38;;;16.85
71807;BMP280;59655;42.590;23.364;2022-10-16T14:41:21;92384.69;;;16.58
71807;BMP280;59655;42.590;23.364;2022-10-16T14:43:51;92391.09;;;16.45
71807;BMP280;59655;42.590;23.364;2022-10-16T14:46:27;92380.13;;;16.33
71807;BMP280;59655;42.590;23.364;2022-10-16T14:49:02;92387.38;;;16.23
71807;BMP280;59655;42.590;23.364;2022-10-16T14:51:29;92385.22;;;16.04
71807;BMP280;59655;42.590;23.364;2022-10-16T14:53:54;92390.09;;;15.98
71807;BMP280;59655;42.590;23.364;2022-10-16T14:56:23;92388.56;;;15.87
71807;BMP280;59655;42.590;23.364;2022-10-16T14:58:52;92399.41;;;15.72
71807;BMP280;59655;42.590;23.364;2022-10-16T15:01:18;92393.56;;;15.66
71807;BMP280;59655;42.590;23.364;2022-10-16T15:03:43;92399.56;;;15.49
71807;BMP280;59655;42.590;23.364;2022-10-16T15:06:16;92405.63;;;15.42
71807;BMP280;59655;42.590;23.364;2022-10-16T15:08:42;92407.34;;;15.30
71807;BMP280;59655;42.590;23.364;2022-10-16T15:11:12;92408.50;;;15.11
71807;BMP280;59655;42.590;23.364;2022-10-16T15:13:39;92406.19;;;15.08
71807;BMP280;59655;42.590;23.364;2022-10-16T15:16:04;92411.06;;;14.94
71807;BMP280;59655;42.590;23.364;2022-10-16T15:18:30;92410.38;;;14.86
71807;BMP280;59655;42.590;23.364;2022-10-16T15:20:55;92418.44;;;14.70
71807;BMP280;59655;42.590;23.364;2022-10-16T15:23:22;92413.84;;;14.56
71807;BMP280;59655;42.590;23.364;2022-10-16T15:25:50;92415.28;;;14.49
71807;BMP280;59655;42.590;23.364;2022-10-16T15:28:15;92419.22;;;14.40
71807;BMP280;59655;42.590;23.364;2022-10-16T15:30:42;92420.81;;;14.36
71807;BMP280;59655;42.590;23.364;2022-10-16T15:33:19;92420.84;;;14.28
71807;BMP280;59655;42.590;23.364;2022-10-16T15:35:52;92419.44;;;14.27
71807;BMP280;59655;42.590;23.364;2022-10-16T15:38:19;92426.53;;;14.24
71807;BMP280;59655;42.590;23.364;2022-10-16T15:40:46;92432.97;;;14.14
71807;BMP280;59655;42.590;23.364;2022-10-16T15:43:11;92423.88;;;14.01
71807;BMP280;59655;42.590;23.364;2022-10-16T15:45:37;92428.84;;;13.90
71807;BMP280;59655;42.590;23.364;2022-10-16T15:48:02;92430.47;;;13.85
71807;BMP280;59655;42.590;23.364;2022-10-16T15:50:30;92430.09;;;13.73
71807;BMP280;59655;42.590;23.364;2022-10-16T15:52:55;92441.97;;;13.57
71807;BMP280;59655;42.590;23.364;2022-10-16T15:55:21;92437.25;;;13.34
71807;BMP280;59655;42.590;23.364;2022-10-16T15:57:46;92447.41;;;13.36
71807;BMP280;59655;42.590;23.364;2022-10-16T16:00:14;92445.44;;;13.29
71807;BMP280;59655;42.590;23.364;2022-10-16T16:02:41;92444.84;;;13.15
71807;BMP280;59655;42.590;23.364;2022-10-16T16:05:08;92449.97;;;13.05
71807;BMP280;59655;42.590;23.364;2022-10-16T16:07:34;92456.19;;;13.00
71807;BMP280;59655;42.590;23.364;2022-10-16T16:10:01;92453.84;;;12.97
71807;BMP280;59655;42.590;23.364;2022-10-16T16:12:26;92455.56;;;12.94